Time;durP1;ratioP1;P1;durP2;ratioP2;P2;SDS_P1;SDS_P2;PMS_P1;PMS_P2;Temp;Humidity;BMP_temperature;BMP_pressure;BME280_temperature;BME280_humidity;BME280_pressure;Samples;Min_cycle;Max_cycle;Signal;HPM_P1;HPM_P2
2022/07/27 00:00:49;;;;;;;;;3.00;2.00;;;;;23.40;41.29;98958.28;5055160;28;45432;-82
2022/07/27 00:03:15;;;;;;;;;1.00;1.00;;;;;23.37;41.59;98947.81;5045771;28;45320;-82
2022/07/27 00:05:41;;;;;;;;;1.25;1.00;;;;;23.30;41.79;98952.91;5048883;28;45552;-83
2022/07/27 00:08:07;;;;;;;;;1.00;1.00;;;;;23.28;41.57;98942.31;5053479;28;45440;-83
2022/07/27 00:10:34;;;;;;;;;3.00;2.50;;;;;23.27;41.88;98937.94;5052498;28;45325;-83
2022/07/27 00:12:59;;;;;;;;;2.00;2.00;;;;;23.21;42.17;98926.91;5045088;28;45356;-82
2022/07/27 00:15:25;;;;;;;;;1.75;1.00;;;;;23.14;42.16;98939.22;5033242;28;46783;-83
2022/07/27 00:17:50;;;;;;;;;1.00;1.00;;;;;23.07;42.29;98933.59;5047278;28;45440;-83
2022/07/27 00:20:15;;;;;;;;;3.00;2.25;;;;;23.05;42.45;98993.88;5053616;28;45785;-83
2022/07/27 00:22:41;;;;;;;;;3.00;1.00;;;;;23.02;42.50;98948.44;5053209;28;45447;-81
2022/07/27 00:25:07;;;;;;;;;1.25;1.25;;;;;22.98;42.81;98955.94;5052882;28;47904;-82
2022/07/27 00:27:32;;;;;;;;;2.00;2.00;;;;;22.91;43.25;98962.91;5055180;28;45901;-83
2022/07/27 00:29:58;;;;;;;;;3.00;2.00;;;;;22.87;43.15;98977.63;5046959;28;45524;-82
2022/07/27 00:32:23;;;;;;;;;1.00;1.00;;;;;22.82;43.12;98940.41;5038622;28;45471;-84
2022/07/27 00:34:48;;;;;;;;;3.25;2.25;;;;;22.77;43.83;98949.91;5041078;28;46221;-83
2022/07/27 00:37:14;;;;;;;;;2.00;2.00;;;;;22.71;43.41;98950.44;5055152;28;45499;-84
2022/07/27 00:39:39;;;;;;;;;1.75;1.75;;;;;22.64;43.51;98945.63;5046775;28;45587;-84
2022/07/27 00:42:05;;;;;;;;;0.50;0.50;;;;;22.60;43.61;98949.59;5050909;28;45491;-84
2022/07/27 00:44:31;;;;;;;;;1.75;1.00;;;;;22.56;44.37;98960.78;5043354;28;46550;-83
2022/07/27 00:46:58;;;;;;;;;1.40;1.40;;;;;22.48;44.67;98966.84;5046508;28;45446;-83
2022/07/27 00:49:25;;;;;;;;;2.00;1.75;;;;;22.41;44.40;98970.25;5050158;28;45389;-84
2022/07/27 00:51:52;;;;;;;;;1.00;0.25;;;;;22.34;44.49;98978.00;5046175;28;45238;-85
2022/07/27 00:54:19;;;;;;;;;1.00;1.00;;;;;22.28;45.42;98959.78;5033625;28;47865;-85
2022/07/27 00:56:45;;;;;;;;;1.00;1.00;;;;;22.25;45.41;98960.03;5035320;28;45496;-82
2022/07/27 00:59:12;;;;;;;;;3.00;1.00;;;;;22.20;45.32;98940.81;5034718;28;45465;-83
2022/07/27 01:01:37;;;;;;;;;3.00;1.00;;;;;22.15;45.55;98945.72;5035100;28;45338;-82
2022/07/27 01:04:03;;;;;;;;;2.00;2.00;;;;;22.11;46.27;98958.59;5040925;28;46132;-83
2022/07/27 01:06:31;;;;;;;;;1.80;1.80;;;;;22.08;45.65;98956.19;5052135;28;45603;-82
2022/07/27 01:11:42;;;;;;;;;2.00;2.00;;;;;22.01;45.75;98964.91;5047395;28;45227;-82
2022/07/27 01:14:08;;;;;;;;;1.50;1.00;;;;;21.96;45.82;98967.97;5038400;28;47090;-83
2022/07/27 01:16:33;;;;;;;;;2.00;2.00;;;;;21.93;45.92;98944.97;5049853;28;45405;-83
2022/07/27 01:18:58;;;;;;;;;2.75;1.50;;;;;21.90;46.33;98952.44;5048290;28;45480;-83
2022/07/27 01:21:24;;;;;;;;;2.00;1.00;;;;;21.86;46.30;98949.16;5037861;28;45299;-82
2022/07/27 01:23:49;;;;;;;;;1.75;1.75;;;;;21.84;46.53;98964.56;5048649;28;45607;-83
2022/07/27 01:26:15;;;;;;;;;2.00;2.00;;;;;21.81;45.84;98939.81;5035209;28;45377;-84
2022/07/27 01:28:45;;;;;;;;;3.50;2.00;;;;;21.82;46.75;98965.69;5053711;28;45347;-82
2022/07/27 01:31:10;;;;;;;;;1.25;1.25;;;;;21.79;46.81;98942.63;5051748;28;45376;-82
2022/07/27 01:33:36;;;;;;;;;2.00;2.00;;;;;21.74;46.72;98942.22;5038590;28;45415;-82
2022/07/27 01:36:02;;;;;;;;;1.00;1.00;;;;;21.71;46.45;98952.38;5047059;28;45222;-82
2022/07/27 01:38:27;;;;;;;;;2.00;2.00;;;;;21.67;46.74;98927.63;5056092;28;45353;-82
2022/07/27 01:40:53;;;;;;;;;2.50;1.50;;;;;21.67;46.92;98940.19;5055713;28;45325;-83
2022/07/27 01:43:20;;;;;;;;;1.00;1.00;;;;;21.65;46.52;98921.56;5051058;28;45404;-83
2022/07/27 01:45:46;;;;;;;;;1.50;1.00;;;;;21.65;46.41;98934.13;5057914;28;45423;-82
2022/07/27 01:48:11;;;;;;;;;1.75;1.00;;;;;21.59;46.90;98928.34;5056812;28;45502;-83
2022/07/27 01:50:37;;;;;;;;;1.00;1.00;;;;;21.57;46.56;98921.41;5057905;28;45238;-82
2022/07/27 01:53:03;;;;;;;;;1.25;1.25;;;;;21.55;46.91;98910.81;5046389;28;47179;-82
2022/07/27 01:55:29;;;;;;;;;2.00;2.00;;;;;21.55;46.87;98913.47;5055448;28;45321;-83
2022/07/27 01:57:54;;;;;;;;;2.25;1.75;;;;;21.56;47.00;98908.97;5045861;28;45431;-82
2022/07/27 02:00:20;;;;;;;;;2.00;1.75;;;;;21.56;46.74;98912.50;5057574;28;45500;-83
2022/07/27 02:02:45;;;;;;;;;1.75;1.00;;;;;21.56;46.67;98920.56;5057070;28;45402;-83
2022/07/27 02:05:11;;;;;;;;;1.25;1.25;;;;;21.57;46.93;98900.78;5057746;28;45380;-82
2022/07/27 02:07:38;;;;;;;;;2.00;2.00;;;;;21.56;46.69;98892.88;5054104;28;45336;-83
2022/07/27 02:10:04;;;;;;;;;1.25;1.25;;;;;21.53;46.84;98888.63;5048174;28;45541;-82
2022/07/27 02:12:38;;;;;;;;;1.00;1.00;;;;;21.54;46.90;98882.28;5052067;28;45499;-82
2022/07/27 02:15:13;;;;;;;;;1.00;0.75;;;;;21.55;46.76;98888.50;5049575;28;45456;-82
2022/07/27 02:17:39;;;;;;;;;1.25;1.25;;;;;21.59;46.74;98881.88;5055562;28;45337;-82
2022/07/27 02:20:07;;;;;;;;;2.00;2.00;;;;;21.60;46.56;98880.88;5050865;28;45471;-82
2022/07/27 02:22:33;;;;;;;;;2.00;2.00;;;;;21.59;46.56;98880.03;5046943;28;47209;-83
2022/07/27 02:24:58;;;;;;;;;2.00;2.00;;;;;21.59;46.76;98879.19;5042658;28;45243;-82
2022/07/27 02:27:24;;;;;;;;;2.00;1.00;;;;;21.59;46.48;98881.88;5044404;28;45361;-83
2022/07/27 02:29:52;;;;;;;;;1.00;1.00;;;;;21.57;46.90;98876.63;5055220;28;45221;-82
2022/07/27 02:32:17;;;;;;;;;1.25;1.25;;;;;21.54;46.98;98874.22;5046614;28;47814;-82
2022/07/27 02:34:43;;;;;;;;;2.00;2.00;;;;;21.54;46.90;98887.63;5043883;28;45441;-83
2022/07/27 02:37:08;;;;;;;;;1.25;1.25;;;;;21.54;47.40;98878.75;5057236;28;45324;-81
2022/07/27 02:39:34;;;;;;;;;2.00;1.00;;;;;21.54;46.71;98876.06;5055796;28;45309;-82
2022/07/27 02:42:00;;;;;;;;;1.75;1.75;;;;;21.52;47.03;98886.91;5043571;28;45377;-82
2022/07/27 02:44:26;;;;;;;;;2.00;2.00;;;;;21.52;47.01;98888.75;5041789;27;45979;-82
2022/07/27 02:46:51;;;;;;;;;1.75;1.75;;;;;21.51;47.33;98884.38;5045324;28;45416;-82
2022/07/27 02:49:17;;;;;;;;;2.00;2.00;;;;;21.50;47.33;98891.56;5043421;28;45294;-82
2022/07/27 02:51:42;;;;;;;;;3.25;2.00;;;;;21.46;47.12;98889.28;5051345;28;45474;-82
2022/07/27 02:54:08;;;;;;;;;2.00;2.00;;;;;21.40;47.50;98892.53;5055701;28;45250;-83
2022/07/27 02:56:33;;;;;;;;;2.25;2.25;;;;;21.33;47.62;98892.22;5045838;28;45303;-82
2022/07/27 02:58:58;;;;;;;;;3.75;2.00;;;;;21.27;47.79;98900.81;5050766;28;45293;-82
2022/07/27 03:01:24;;;;;;;;;2.00;2.00;;;;;21.18;48.09;98897.06;5069347;27;47932;-83
2022/07/27 03:03:49;;;;;;;;;1.50;1.50;;;;;21.11;48.51;98895.91;5053736;28;45423;-82
2022/07/27 03:06:14;;;;;;;;;0.75;0.75;;;;;21.04;48.53;98897.41;5044353;28;45456;-81
2022/07/27 03:08:40;;;;;;;;;1.75;1.75;;;;;20.98;48.89;98879.16;5043395;28;45315;-82
2022/07/27 03:11:07;;;;;;;;;3.25;2.25;;;;;20.95;48.06;98895.50;5056615;28;45535;-82
2022/07/27 03:13:32;;;;;;;;;2.20;2.00;;;;;20.90;48.60;98885.22;5053479;28;45301;-81
2022/07/27 03:15:58;;;;;;;;;2.50;1.00;;;;;20.86;48.97;98899.00;5047495;28;45435;-82
2022/07/27 03:18:23;;;;;;;;;1.50;1.50;;;;;20.80;49.33;98886.97;5040971;28;45568;-82
2022/07/27 03:20:49;;;;;;;;;2.00;2.00;;;;;20.75;48.92;98891.03;5068874;28;46606;-82
2022/07/27 03:23:17;;;;;;;;;0.75;0.75;;;;;20.74;49.15;98890.19;5047507;28;45350;-83
2022/07/27 03:25:42;;;;;;;;;1.50;1.50;;;;;20.73;48.74;98891.16;5055249;28;45484;-82
2022/07/27 03:28:07;;;;;;;;;1.75;1.75;;;;;20.72;49.79;98884.09;5054844;28;45250;-83
2022/07/27 03:30:33;;;;;;;;;1.00;1.00;;;;;20.73;49.18;98899.19;5041782;28;45570;-83
2022/07/27 03:32:58;;;;;;;;;2.75;2.75;;;;;20.74;48.83;98884.81;5050765;28;45387;-82
2022/07/27 03:35:24;;;;;;;;;1.25;1.25;;;;;20.74;49.12;98900.91;5052484;28;45403;-84
2022/07/27 03:37:49;;;;;;;;;2.00;1.75;;;;;20.72;49.07;98884.09;5048477;28;45420;-82
2022/07/27 03:40:14;;;;;;;;;2.50;2.50;;;;;20.72;49.53;98893.97;5049503;28;45345;-82
2022/07/27 03:42:40;;;;;;;;;2.00;2.00;;;;;20.70;49.21;98901.28;5049533;28;45347;-83
2022/07/27 03:45:06;;;;;;;;;1.50;1.50;;;;;20.68;49.12;98895.19;5036209;28;45378;-83
2022/07/27 03:47:31;;;;;;;;;1.00;1.00;;;;;20.68;49.17;98897.88;5047112;28;45206;-84
2022/07/27 03:49:57;;;;;;;;;0.00;0.00;;;;;20.65;49.47;98898.13;5054242;28;45605;-83
2022/07/27 03:52:22;;;;;;;;;3.00;2.00;;;;;20.64;49.23;98909.81;5049130;28;45397;-83
2022/07/27 03:54:48;;;;;;;;;2.50;1.00;;;;;20.62;49.31;98891.19;5051816;28;45392;-83
2022/07/27 03:57:14;;;;;;;;;1.00;1.00;;;;;20.61;49.88;98902.06;5045147;28;45452;-83
2022/07/27 03:59:39;;;;;;;;;2.50;2.50;;;;;20.58;49.60;98903.19;5053922;28;45503;-83
2022/07/27 04:02:05;;;;;;;;;2.00;2.00;;;;;20.63;50.14;98905.44;5050763;28;45503;-51
2022/07/27 04:04:30;;;;;;;;;2.75;2.00;;;;;20.70;49.71;98906.63;5046541;28;45349;-54
2022/07/27 04:06:56;;;;;;;;;3.00;2.00;;;;;20.74;49.56;98902.72;5051270;28;45553;-53
2022/07/27 04:09:21;;;;;;;;;2.00;1.25;;;;;20.78;49.54;98906.84;5048162;28;45460;-53
2022/07/27 04:11:46;;;;;;;;;2.75;2.00;;;;;20.78;49.09;98910.34;5049557;28;45511;-54
2022/07/27 04:14:13;;;;;;;;;3.50;1.50;;;;;20.77;48.96;98908.69;5051036;28;45879;-52
2022/07/27 04:16:40;;;;;;;;;2.25;1.75;;;;;20.75;49.36;98912.47;5053212;28;45492;-53
2022/07/27 04:19:05;;;;;;;;;1.75;1.00;;;;;20.70;49.39;98912.00;5054193;28;47297;-54
2022/07/27 04:21:31;;;;;;;;;4.25;3.00;;;;;20.68;49.32;98917.47;5053190;28;45430;-53
2022/07/27 04:23:56;;;;;;;;;3.25;3.00;;;;;20.67;49.65;98907.75;5051386;28;45448;-52
2022/07/27 04:26:22;;;;;;;;;3.00;2.00;;;;;20.68;49.36;98912.13;5054322;28;45347;-52
2022/07/27 04:28:47;;;;;;;;;3.75;2.00;;;;;20.68;49.72;98922.00;5042989;28;45633;-68
2022/07/27 04:31:13;;;;;;;;;2.00;2.00;;;;;20.68;49.93;98928.19;5054039;28;45424;-70
2022/07/27 04:33:38;;;;;;;;;3.00;1.50;;;;;20.65;49.33;98925.78;5054070;28;45400;-53
2022/07/27 04:36:04;;;;;;;;;3.25;2.50;;;;;20.63;49.75;98930.41;5052668;28;45470;-52
2022/07/27 04:38:29;;;;;;;;;2.50;2.50;;;;;20.59;49.52;98928.13;5047313;28;46567;-51
2022/07/27 04:40:55;;;;;;;;;2.00;2.00;;;;;20.58;50.13;98931.78;5053850;28;45476;-54
2022/07/27 04:43:20;;;;;;;;;2.00;2.00;;;;;20.57;49.97;98922.91;5044803;28;45439;-52
2022/07/27 04:45:46;;;;;;;;;2.75;2.25;;;;;20.55;50.14;98930.22;5053637;28;45381;-51
2022/07/27 04:48:11;;;;;;;;;2.00;2.00;;;;;20.50;50.09;98933.28;5044230;28;45532;-52
2022/07/27 04:50:43;;;;;;;;;3.00;1.50;;;;;20.47;50.24;98938.03;5052137;28;45427;-53
2022/07/27 04:53:10;;;;;;;;;4.75;2.00;;;;;20.45;50.21;98931.94;5043972;28;45449;-53
2022/07/27 04:55:40;;;;;;;;;3.50;3.00;;;;;20.47;50.37;98940.72;5053726;28;45435;-51
2022/07/27 04:58:06;;;;;;;;;2.00;2.00;;;;;20.47;50.20;98944.25;5048407;28;46667;-54
2022/07/27 05:00:31;;;;;;;;;2.00;2.00;;;;;20.49;50.47;98939.59;5050325;28;45395;-53
2022/07/27 05:02:57;;;;;;;;;2.50;1.25;;;;;20.49;50.39;98939.59;5043265;28;45571;-51
2022/07/27 05:05:22;;;;;;;;;2.50;2.50;;;;;20.47;50.79;98946.06;5050451;28;45287;-49
2022/07/27 05:07:48;;;;;;;;;3.25;3.00;;;;;20.43;50.71;98942.81;5045157;28;46191;-48
2022/07/27 05:10:13;;;;;;;;;5.25;3.00;;;;;20.43;50.59;98948.19;5049532;28;45471;-52
2022/07/27 05:12:38;;;;;;;;;3.00;1.50;;;;;20.44;50.41;98960.56;5053301;28;45535;-52
2022/07/27 05:15:04;;;;;;;;;2.25;1.00;;;;;20.44;50.26;98957.06;5054295;28;45520;-50
2022/07/27 05:17:30;;;;;;;;;2.75;2.75;;;;;20.42;51.01;98969.72;5050571;28;45495;-50
2022/07/27 05:19:56;;;;;;;;;2.50;2.50;;;;;20.38;50.43;98955.72;5052660;28;45464;-51
2022/07/27 05:22:21;;;;;;;;;2.00;2.00;;;;;20.35;50.72;98966.66;5054017;28;45435;-53
2022/07/27 05:24:46;;;;;;;;;2.00;2.00;;;;;20.31;50.62;98975.06;5050801;28;45458;-50
2022/07/27 05:27:12;;;;;;;;;2.00;2.00;;;;;20.26;51.24;98971.94;5054792;28;45546;-52
2022/07/27 05:29:37;;;;;;;;;2.00;2.00;;;;;20.25;50.72;98978.25;5050569;27;45470;-51
2022/07/27 05:32:03;;;;;;;;;2.00;1.75;;;;;20.24;51.12;98984.59;5052103;28;45497;-53
2022/07/27 05:34:29;;;;;;;;;2.00;2.00;;;;;20.23;50.72;98988.25;5045352;28;45301;-51
2022/07/27 05:36:55;;;;;;;;;3.00;3.00;;;;;20.20;51.28;98994.69;5050641;28;46169;-57
2022/07/27 05:39:20;;;;;;;;;4.50;2.50;;;;;20.17;51.22;98997.63;5051695;28;45326;-58
2022/07/27 05:41:45;;;;;;;;;4.50;3.00;;;;;20.14;51.65;99003.22;5049850;28;45838;-59
2022/07/27 05:44:11;;;;;;;;;1.00;0.00;;;;;20.12;51.36;99000.66;5048400;28;45574;-59
2022/07/27 05:46:36;;;;;;;;;3.50;3.50;;;;;20.15;51.74;99005.75;5048102;28;46293;-59
2022/07/27 05:49:02;;;;;;;;;2.25;2.25;;;;;20.18;51.42;99004.66;5047358;28;45414;-59
2022/07/27 05:51:29;;;;;;;;;4.75;3.00;;;;;20.20;50.93;99008.94;5054270;28;45379;-59
2022/07/27 05:53:55;;;;;;;;;4.25;2.25;;;;;20.24;51.25;99011.38;5049986;28;45523;-59
2022/07/27 05:56:20;;;;;;;;;2.00;2.00;;;;;20.23;51.03;99013.19;5055060;28;46176;-59
2022/07/27 05:58:45;;;;;;;;;4.25;3.00;;;;;20.25;51.44;99018.41;5052556;28;45424;-60
2022/07/27 06:01:11;;;;;;;;;6.25;3.00;;;;;20.26;51.24;99020.97;5057167;28;45443;-61
2022/07/27 06:03:37;;;;;;;;;3.00;3.00;;;;;20.25;51.21;99019.28;5051047;28;45368;-61
2022/07/27 06:08:46;;;;;;;;;2.50;2.50;;;;;20.27;51.14;99011.13;5049054;28;45499;-60
2022/07/27 06:11:13;;;;;;;;;3.00;2.00;;;;;20.29;51.17;99018.03;5045044;28;45421;-61
2022/07/27 06:13:38;;;;;;;;;3.75;2.25;;;;;20.32;51.13;99017.78;5054090;28;45483;-61
2022/07/27 06:16:04;;;;;;;;;2.00;2.00;;;;;20.38;50.69;99016.47;5055862;28;45437;-61
2022/07/27 06:18:29;;;;;;;;;2.50;2.50;;;;;20.38;50.78;99025.34;5051366;28;45184;-61
2022/07/27 06:20:55;;;;;;;;;2.75;2.00;;;;;20.41;50.62;99022.44;5056609;28;45303;-60
2022/07/27 06:23:20;;;;;;;;;2.00;2.00;;;;;20.43;50.87;99014.28;5048926;28;45356;-61
2022/07/27 06:25:45;;;;;;;;;3.25;2.00;;;;;20.44;50.65;99016.78;5055949;28;46236;-61
2022/07/27 06:28:11;;;;;;;;;3.00;2.25;;;;;20.47;50.68;99016.56;5051565;28;45464;-61
2022/07/27 06:30:36;;;;;;;;;3.00;2.00;;;;;20.49;50.11;99011.91;5056145;28;45414;-61
2022/07/27 06:33:03;;;;;;;;;4.00;3.00;;;;;20.46;50.59;99019.34;5052368;28;45841;-61
2022/07/27 06:35:29;;;;;;;;;3.25;2.75;;;;;20.44;51.04;99027.50;5056207;28;46433;-61
2022/07/27 06:37:55;;;;;;;;;4.50;2.75;;;;;20.42;50.50;99020.59;5048213;28;45373;-62
2022/07/27 06:40:20;;;;;;;;;3.00;3.00;;;;;20.41;50.95;99016.22;5055708;28;45448;-61
2022/07/27 06:42:47;;;;;;;;;2.00;2.00;;;;;20.43;50.94;99019.63;5049520;28;45413;-60
2022/07/27 06:45:12;;;;;;;;;2.50;2.50;;;;;20.45;50.84;99026.53;5054260;28;45353;-60
2022/07/27 06:47:39;;;;;;;;;2.00;2.00;;;;;20.49;50.69;99024.47;5048403;28;45527;-61
2022/07/27 06:50:05;;;;;;;;;3.00;3.00;;;;;20.51;50.54;99026.03;5053938;28;45462;-61
2022/07/27 06:52:31;;;;;;;;;3.50;2.00;;;;;20.51;50.43;99023.38;5048325;28;45429;-59
2022/07/27 06:54:56;;;;;;;;;2.75;2.00;;;;;20.52;50.60;99027.75;5051326;28;45994;-61
2022/07/27 06:57:22;;;;;;;;;3.50;3.00;;;;;20.57;50.99;99018.47;5049033;28;45447;-61
2022/07/27 06:59:49;;;;;;;;;4.75;3.00;;;;;20.66;50.57;99015.03;5049579;28;45405;-61
2022/07/27 07:02:15;;;;;;;;;2.00;2.00;;;;;20.71;50.56;99029.75;5049039;28;45527;-61
2022/07/27 07:04:42;;;;;;;;;2.25;2.25;;;;;20.76;49.87;99016.84;5046634;28;46441;-61
2022/07/27 07:07:07;;;;;;;;;3.80;3.00;;;;;20.84;50.21;99019.72;5051282;28;45519;-61
2022/07/27 07:09:33;;;;;;;;;4.00;2.25;;;;;20.94;49.69;99027.00;5046309;28;45653;-61
2022/07/27 07:11:58;;;;;;;;;3.75;2.00;;;;;21.02;49.67;99025.34;5049619;28;45559;-61
2022/07/27 07:14:25;;;;;;;;;2.50;2.50;;;;;21.08;49.10;99024.84;5052303;28;46435;-61
2022/07/27 07:16:50;;;;;;;;;1.00;1.00;;;;;21.14;49.19;99028.81;5051347;28;45363;-61
2022/07/27 07:19:16;;;;;;;;;2.50;2.50;;;;;21.20;49.36;99025.66;5053488;28;45432;-61
2022/07/27 07:21:41;;;;;;;;;2.00;2.00;;;;;21.30;49.50;99021.19;5052298;28;45513;-61
2022/07/27 07:24:07;;;;;;;;;2.00;2.00;;;;;21.38;48.77;99028.59;5045172;28;45785;-61
2022/07/27 07:26:32;;;;;;;;;3.75;2.75;;;;;21.45;48.81;99011.81;5053047;28;45398;-60
2022/07/27 07:28:58;;;;;;;;;4.00;3.00;;;;;21.56;48.50;99017.13;5053686;28;45417;-61
2022/07/27 07:31:24;;;;;;;;;2.00;2.00;;;;;21.66;47.69;99021.69;5054704;28;45463;-60
2022/07/27 07:33:50;;;;;;;;;4.25;2.50;;;;;21.72;47.55;99013.97;5047115;28;45494;-59
2022/07/27 07:36:16;;;;;;;;;3.20;2.80;;;;;21.81;48.03;99028.38;5055049;28;45430;-61
2022/07/27 07:38:42;;;;;;;;;2.00;2.00;;;;;21.87;47.05;99017.97;5044913;28;45600;-61
2022/07/27 07:41:08;;;;;;;;;2.50;2.50;;;;;21.94;46.79;99012.94;5054840;28;45431;-61
2022/07/27 07:43:35;;;;;;;;;2.00;2.00;;;;;21.99;47.10;99024.09;5042670;28;45532;-60
2022/07/27 07:46:01;;;;;;;;;2.80;2.00;;;;;22.07;46.96;99018.09;5054365;28;45388;-59
2022/07/27 07:48:26;;;;;;;;;2.00;2.00;;;;;22.10;46.66;99007.94;5048723;28;45355;-61
2022/07/27 07:50:52;;;;;;;;;3.00;3.00;;;;;22.12;46.22;99015.84;5054811;28;45183;-60
2022/07/27 07:53:17;;;;;;;;;2.00;2.00;;;;;22.15;46.51;99013.72;5046566;28;46380;-60
2022/07/27 07:55:43;;;;;;;;;2.50;2.50;;;;;22.21;46.82;99007.81;5051851;28;45365;-59
2022/07/27 07:58:08;;;;;;;;;3.00;3.00;;;;;22.27;46.55;99004.56;5048116;28;45427;-60
2022/07/27 08:00:34;;;;;;;;;2.00;2.00;;;;;22.31;46.53;98999.75;5050019;28;45429;-60
2022/07/27 08:03:00;;;;;;;;;1.00;1.00;;;;;22.38;45.98;99006.28;5048795;28;45407;-61
2022/07/27 08:05:25;;;;;;;;;4.00;3.00;;;;;22.44;45.57;99007.56;5049021;28;45387;-59
2022/07/27 08:07:51;;;;;;;;;2.75;2.75;;;;;22.43;46.10;99001.34;5048367;28;45451;-61
2022/07/27 08:10:19;;;;;;;;;1.75;1.75;;;;;22.46;45.80;98995.69;5046771;28;45463;-60
2022/07/27 08:12:48;;;;;;;;;5.00;2.00;;;;;22.52;46.37;99005.88;5049149;28;45510;-61
2022/07/27 08:15:16;;;;;;;;;3.80;3.80;;;;;22.54;45.57;99009.28;5051387;28;45444;-60
2022/07/27 08:17:42;;;;;;;;;2.25;2.25;;;;;22.52;45.93;99003.19;5039485;28;45414;-61
2022/07/27 08:20:09;;;;;;;;;4.75;2.75;;;;;22.54;45.59;99001.22;5051641;28;45523;-61
2022/07/27 08:22:34;;;;;;;;;3.25;3.25;;;;;22.57;46.22;98995.56;5048097;28;46728;-62
2022/07/27 08:25:00;;;;;;;;;3.00;3.00;;;;;22.63;46.15;99002.19;5051201;28;45389;-61
2022/07/27 08:27:26;;;;;;;;;3.00;3.00;;;;;22.66;45.90;99003.75;5051620;28;45321;-61
2022/07/27 08:29:52;;;;;;;;;2.00;2.00;;;;;22.67;45.41;99016.22;5046632;28;45543;-60
2022/07/27 08:32:18;;;;;;;;;3.00;3.00;;;;;22.66;45.92;98998.38;5046186;28;47711;-60
2022/07/27 08:34:43;;;;;;;;;2.25;2.25;;;;;22.71;45.57;98998.81;5042562;28;45373;-61
2022/07/27 08:37:09;;;;;;;;;3.50;3.00;;;;;22.73;45.98;99000.38;5049157;28;45363;-61
2022/07/27 08:39:34;;;;;;;;;3.00;2.00;;;;;22.81;45.55;98983.56;5044431;27;45535;-61
2022/07/27 08:42:08;;;;;;;;;3.00;2.00;;;;;22.88;45.19;99028.56;5051386;28;45468;-61
2022/07/27 08:44:35;;;;;;;;;4.00;3.60;;;;;22.89;45.40;99002.53;5046287;28;45389;-61
2022/07/27 08:47:01;;;;;;;;;2.25;2.00;;;;;22.89;45.42;98989.09;5049937;28;45417;-61
2022/07/27 08:49:28;;;;;;;;;6.00;3.00;;;;;22.92;45.37;98988.81;5045794;28;45456;-61
2022/07/27 08:51:54;;;;;;;;;4.00;4.00;;;;;22.93;45.78;98985.13;5050382;27;45485;-61
2022/07/27 08:54:20;;;;;;;;;2.00;2.00;;;;;22.95;44.83;99007.34;5051480;28;45435;-61
2022/07/27 08:56:46;;;;;;;;;4.50;4.50;;;;;22.95;45.17;98991.22;5051753;28;45478;-62
2022/07/27 08:59:12;;;;;;;;;4.00;3.50;;;;;22.98;45.58;99007.88;5045535;28;45345;-60
2022/07/27 09:01:39;;;;;;;;;3.50;3.50;;;;;23.00;45.16;98975.47;5051753;28;45570;-60
2022/07/27 09:04:07;;;;;;;;;4.00;4.00;;;;;23.04;45.28;98990.34;5044767;28;45475;-61
2022/07/27 09:06:42;;;;;;;;;4.75;3.25;;;;;23.05;45.08;98980.44;5051775;28;45495;-60
2022/07/27 09:09:08;;;;;;;;;5.00;5.00;;;;;23.11;45.23;98999.56;5042557;28;45480;-60
2022/07/27 09:11:36;;;;;;;;;2.00;1.25;;;;;23.18;45.24;98992.59;5051463;28;46575;-59
2022/07/27 09:14:04;;;;;;;;;3.80;2.60;;;;;23.23;44.87;99000.22;5051173;28;45464;-59
2022/07/27 09:16:30;;;;;;;;;2.00;2.00;;;;;23.25;44.71;98990.19;5052151;28;45596;-60
2022/07/27 09:19:02;;;;;;;;;4.00;4.00;;;;;23.32;45.25;98999.34;5043814;28;46049;-59
2022/07/27 09:21:27;;;;;;;;;3.25;3.00;;;;;23.37;44.61;98983.63;5041534;28;45637;-59
2022/07/27 09:24:15;;;;;;;;;2.75;2.75;;;;;23.41;44.55;98981.50;5045884;28;45429;-59
2022/07/27 09:26:41;;;;;;;;;4.00;4.00;;;;;23.47;44.80;98984.44;5048925;28;45418;-60
2022/07/27 09:29:08;;;;;;;;;2.00;2.00;;;;;23.53;44.51;98969.59;5047443;28;45528;-60
2022/07/27 09:31:50;;;;;;;;;3.00;3.00;;;;;23.64;43.64;98981.00;5051682;28;46328;-60
2022/07/27 09:34:32;;;;;;;;;2.00;2.00;;;;;23.69;43.86;98975.19;5046970;28;45374;-60
2022/07/27 09:36:58;;;;;;;;;4.25;4.25;;;;;23.70;44.16;98967.97;5043950;28;45457;-60
2022/07/27 09:39:26;;;;;;;;;2.25;2.25;;;;;23.72;43.70;98980.28;5047345;28;45542;-59
2022/07/27 09:41:55;;;;;;;;;1.00;0.00;;;;;23.76;43.19;98978.16;5050890;28;45471;-60
2022/07/27 09:44:34;;;;;;;;;5.60;4.00;;;;;23.84;43.60;98959.41;5044793;28;45542;-60
2022/07/27 09:47:00;;;;;;;;;4.80;3.00;;;;;23.89;43.71;98970.56;5045961;28;45486;-61
2022/07/27 09:49:31;;;;;;;;;2.00;2.00;;;;;23.97;43.25;98979.59;5043417;28;45385;-60
2022/07/27 09:51:58;;;;;;;;;4.00;3.00;;;;;24.01;42.78;98972.06;5049678;28;46354;-61
2022/07/27 09:54:25;;;;;;;;;1.80;1.80;;;;;24.05;42.88;98972.63;5041783;28;45389;-61
2022/07/27 09:56:59;;;;;;;;;3.00;1.50;;;;;24.12;42.98;98962.94;5049795;28;45461;-60
2022/07/27 09:59:24;;;;;;;;;4.00;3.00;;;;;24.17;42.74;98957.94;5042696;28;45479;-59
2022/07/27 10:01:50;;;;;;;;;2.00;2.00;;;;;24.26;43.02;98955.22;5043503;28;45526;-60
2022/07/27 10:04:16;;;;;;;;;3.25;3.25;;;;;24.35;42.43;98950.75;5047210;28;45705;-59
2022/07/27 10:06:42;;;;;;;;;4.00;4.00;;;;;24.43;42.65;98956.25;5045853;28;45519;-60
2022/07/27 10:09:07;;;;;;;;;1.00;1.00;;;;;24.52;42.38;98947.22;5047525;28;45477;-60
2022/07/27 10:11:34;;;;;;;;;4.75;4.25;;;;;24.57;41.97;98947.63;5047192;28;46474;-60
2022/07/27 10:13:59;;;;;;;;;3.60;3.60;;;;;24.63;42.30;98943.47;5046652;28;45481;-60
2022/07/27 10:16:28;;;;;;;;;5.00;3.25;;;;;24.68;42.01;98947.38;5053789;28;45270;-59
2022/07/27 10:19:14;;;;;;;;;3.50;3.50;;;;;24.72;41.87;98941.69;5044269;28;45470;-59
2022/07/27 10:21:43;;;;;;;;;3.50;3.00;;;;;24.77;41.78;98945.59;5054562;28;45769;-60
2022/07/27 10:24:12;;;;;;;;;3.40;3.40;;;;;24.82;41.52;98942.41;5050788;28;45429;-60
2022/07/27 10:26:41;;;;;;;;;3.50;3.25;;;;;24.87;40.89;98924.78;5052376;28;45450;-60
2022/07/27 10:29:13;;;;;;;;;3.00;3.00;;;;;24.90;41.45;98919.06;5050000;28;45484;-61
2022/07/27 10:31:58;;;;;;;;;3.00;3.00;;;;;24.99;41.20;98925.41;5051255;28;45484;-59
2022/07/27 10:34:37;;;;;;;;;3.00;3.00;;;;;25.05;40.67;98922.06;5042625;28;45361;-60
2022/07/27 10:37:10;;;;;;;;;4.00;4.00;;;;;25.12;40.98;98955.53;5047492;28;45526;-60
2022/07/27 10:39:38;;;;;;;;;3.00;3.00;;;;;25.21;41.05;98913.25;5048837;28;45431;-60
2022/07/27 10:42:23;;;;;;;;;3.25;3.25;;;;;25.25;40.78;98918.16;5051569;28;47482;-60
2022/07/27 10:44:53;;;;;;;;;2.80;2.80;;;;;25.28;40.40;98914.31;5046122;28;45479;-60
2022/07/27 10:47:32;;;;;;;;;6.00;4.00;;;;;25.40;40.11;98937.31;5051215;28;45459;-60
2022/07/27 10:50:15;;;;;;;;;3.00;2.50;;;;;25.45;40.01;98916.09;5047458;28;45535;-60
2022/07/27 10:52:53;;;;;;;;;3.75;3.75;;;;;25.48;40.14;98898.72;5039247;28;46341;-60
2022/07/27 10:55:41;;;;;;;;;5.80;4.00;;;;;25.56;40.34;98901.47;5054483;28;45380;-60
2022/07/27 10:58:09;;;;;;;;;5.25;4.00;;;;;25.64;39.98;98899.66;5055724;28;45346;-60
2022/07/27 11:00:50;;;;;;;;;6.75;4.00;;;;;25.71;39.40;98889.91;5055487;28;45599;-60
2022/07/27 11:03:36;;;;;;;;;4.25;3.75;;;;;25.81;39.46;98895.16;5055360;28;45606;-60
2022/07/27 11:06:16;;;;;;;;;1.00;1.00;;;;;25.89;39.06;98900.59;5054850;28;45336;-60
2022/07/27 11:08:44;;;;;;;;;4.80;3.80;;;;;25.98;39.20;98887.97;5054906;28;45434;-60
2022/07/27 11:11:14;;;;;;;;;4.50;3.00;;;;;26.06;39.00;98909.59;5055790;28;45362;-59
2022/07/27 11:13:40;;;;;;;;;3.00;3.00;;;;;26.09;38.29;98901.19;5055330;28;46739;-60
2022/07/27 11:16:09;;;;;;;;;3.50;3.50;;;;;26.06;38.54;98902.34;5055439;28;45526;-60
2022/07/27 11:18:37;;;;;;;;;2.80;2.80;;;;;26.06;38.54;98891.53;5055440;28;45535;-60
2022/07/27 11:21:26;;;;;;;;;3.00;2.00;;;;;26.08;38.50;98907.59;5055344;28;45417;-60
2022/07/27 11:23:58;;;;;;;;;4.00;4.00;;;;;26.10;37.90;98878.56;5055033;28;45489;-60
2022/07/27 11:26:26;;;;;;;;;3.20;3.00;;;;;26.18;37.74;98892.06;5054992;28;45388;-60
2022/07/27 11:28:52;;;;;;;;;6.00;4.50;;;;;26.28;38.04;98886.53;5054926;28;45383;-59
2022/07/27 11:31:18;;;;;;;;;2.75;2.75;;;;;26.37;37.94;98851.25;5054633;28;45258;-60
2022/07/27 11:33:57;;;;;;;;;1.00;1.00;;;;;26.45;37.62;98863.09;5054961;28;46476;-60
2022/07/27 11:36:35;;;;;;;;;3.00;3.00;;;;;26.51;37.70;98865.94;5054847;28;45329;-60
2022/07/27 11:39:03;;;;;;;;;4.75;3.00;;;;;26.55;37.56;98859.19;5054928;28;45461;-60